« Back
NWS Peachtree City, Ga » Text Product » AHN Terminal Aerodrome Forecast


Printer-friendly Version
Current Version              Previous Versions:   1  2  3  4  5  6  7  8  9  

Terminal Aerodrome Forecast

898
FTAK31 PAJN 011400 AAA
TAFAHN
TAF AMD
PAHN 011456Z 0115/0212 32011KT P6SM SKC
     FM011900 32016G25KT P6SM SKC
     FM020300 31012G19KT P6SM SKC
      AMD LTD TO CLD VIS AND WIND=



USA.gov is the U.S. government's official web portal to all federal, state and local government web resources and services.